Track Линкевич Игорь

Time Latitude Longitude Accuracy (66% radius in meters) Altitude (meters) Speed (km/hour) Bearing (degrees) Battery (%) GPS flag
08:56:37 60.370968 29.556336 6 76.898833590573 0.23482745885849 166.25437927246 90 1 delete
08:56:28 60.370973 29.556391 8 77.413229660993 0.2730655670166 45.887771606445 90 1 delete
08:56:16 60.371001 29.556442 8 76.666351137062 0.15981175005436 60.857021331787 90 1 delete
08:56:04 60.370984 29.556426 4 76.347536123063 0.062569729983807 64.124687194824 90 1 delete
08:55:52 60.370998 29.556388 6 76.805932469131 0.06896810233593 223.21711730957 90 1 delete
08:55:40 60.370947 29.556351 4 77.440195261316 0.011310111731291 223.21711730957 90 1 delete
08:55:31 60.370943 29.556336 8 78.819748003108 0.06382392346859 251.85208129883 90 1 delete
08:55:28 60.370956 29.556332 8 78.887262310048 0.1025627553463 251.85208129883 90 1 delete
08:55:19 60.371000 29.556383 6 78.886978710685 0.068473592400551 251.85208129883 90 1 delete
08:55:07 60.370998 29.556357 6 78.695808662471 0.0580786280334 251.85208129883 90 1 delete
08:54:55 60.370990 29.556346 6 79.097548686968 0.04188622161746 251.85208129883 90 1 delete
08:54:43 60.370975 29.556312 6 79.267372220681 0.041424348950386 251.85208129883 90 1 delete
08:54:34 60.370961 29.556307 6 79.298251420917 0.017802257090807 251.85208129883 90 1 delete
08:54:22 60.371011 29.556298 8 78.457546389799 0.18659649789333 179.87619018555 90 1 delete
08:54:16 60.371004 29.556309 8 77.445522623089 0.14635507762432 230.52055358887 90 1 delete
08:54:10 60.370990 29.556346 8 77.129131474599 0.035204239189625 246.50468444824 90 1 delete
08:53:58 60.370966 29.556379 6 77.194562330365 0.0053219995461404 246.50468444824 90 1 delete
08:53:46 60.370962 29.556410 8 77.295274211839 0.12175535410643 246.50468444824 90 1 delete
08:53:34 60.370978 29.556365 4 76.909656551752 0.20070897042751 246.50468444824 90 1 delete
08:53:25 60.370985 29.556383 6 77.02345865271 0.11699540913105 246.50468444824 90 1 delete
08:53:13 60.371009 29.556379 6 77.274203501627 0.033140163868666 246.50468444824 90 1 delete
08:53:04 60.370971 29.556384 6 76.908401806052 0.062118146568537 246.50468444824 90 1 delete
08:53:01 60.370971 29.556351 6 76.973391890043 0.028929769992828 246.50468444824 90 1 delete
08:52:49 60.370976 29.556345 6 76.875538194108 0.12953817844391 246.50468444824 90 1 delete
08:52:37 60.370975 29.556304 8 77.137580307448 0.22661952674389 30.121719360352 90 1 delete
08:52:25 60.370981 29.556267 8 77.670960242009 0.29416054487228 238.2603302002 90 1 delete
08:52:13 60.371024 29.556191 6 75.492021996003 0.02140898257494 84.808128356934 90 1 delete
08:52:04 60.371041 29.556266 8 74.585448484184 0.050875376909971 84.808128356934 90 1 delete
08:51:52 60.371064 29.556296 4 73.746781426907 0.066264159977436 84.808128356934 90 1 delete
08:51:46 60.371041 29.556278 6 73.536642274047 0.018972741439939 84.808128356934 90 1 delete
08:51:40 60.370994 29.556307 8 73.351160545493 0.014383247122169 84.808128356934 90 1 delete
08:51:28 60.370965 29.556328 6 73.630306265961 0.031720396131277 84.808128356934 90 1 delete
08:51:19 60.370954 29.556334 6 73.798429475348 0.047349836677313 84.808128356934 90 1 delete
08:51:07 60.370966 29.556294 4 73.656586983587 0.003571656299755 96.762084960938 90 1 delete
08:50:55 60.370971 29.556263 4 73.477356859307 0.0059932782314718 96.762084960938 90 1 delete
08:50:43 60.370977 29.556317 4 73.315264797574 0.0092587238177657 96.762084960938 90 1 delete
08:50:31 60.371003 29.556274 4 73.190401060756 0.010369970463216 96.762084960938 90 1 delete
08:50:22 60.371014 29.556261 4 73.024508395807 0.021830460056663 96.762084960938 90 1 delete
08:50:10 60.371001 29.556274 4 72.809256599368 0.017531376332045 96.762084960938 90 1 delete
08:49:58 60.370990 29.556289 4 72.632382525475 0.022861102595925 96.762084960938 90 1 delete
08:49:46 60.370981 29.556289 4 72.469851187236 0.015384269878268 96.762084960938 90 1 delete
08:49:34 60.370997 29.556299 4 72.348406489457 0.016599174588919 96.762084960938 90 1 delete
08:49:25 60.370997 29.556303 4 72.254543874117 0.029098423197865 96.762084960938 90 1 delete
08:49:13 60.370989 29.556300 4 72.113710388933 0.015316898934543 96.762084960938 90 1 delete
08:49:01 60.370995 29.556294 4 71.944383737211 0.015043081715703 96.762084960938 90 1 delete
08:48:52 60.370997 29.556332 4 71.831720627073 0.011352709494531 96.762084960938 90 1 delete
08:48:40 60.370993 29.556336 6 71.739696656599 0.015641767531633 96.762084960938 90 1 delete
08:48:34 60.370993 29.556349 4 71.703787819245 0.010158563032746 96.762084960938 90 1 delete
08:48:28 60.370980 29.556375 6 71.637442358411 0.021635435521603 96.762084960938 90 1 delete
08:48:19 60.370972 29.556431 4 71.511837041818 0.0051653003320098 96.762084960938 90 1 delete